Time,TemperatureF,DewpointF,PressureIn,WindDirection,WindDirectionDegrees,WindSpeedMPH,WindSpeedGustMPH,Humidity,HourlyPrecipIn,Conditions,Clouds,dailyrainin,SoftwareType,DateUTC
2013-04-04 00:10:00,31.3,16.0,30.34,West,274,0.0,3.0,53,0.00,,,0.00,weatherlink.com 1.10,2013-04-04 04:10:00,
2013-04-04 00:26:00,29.3,16.0,30.35,NW,323,1.0,3.0,58,0.00,,,0.00,weatherlink.com 1.10,2013-04-04 04:26:00,
2013-04-04 00:40:00,30.1,14.0,30.36,SW,214,1.0,3.0,51,0.00,,,0.00,weatherlink.com 1.10,2013-04-04 04:40:00,
2013-04-04 00:55:00,29.6,16.0,30.36,WNW,301,0.0,2.0,56,0.00,,,0.00,weatherlink.com 1.10,2013-04-04 04:55:00,
2013-04-04 01:10:00,29.0,15.0,30.36,NW,304,0.0,1.0,57,0.00,,,0.00,weatherlink.com 1.10,2013-04-04 05:10:00,
2013-04-04 01:25:00,28.8,15.0,30.37,WSW,257,2.0,3.0,57,0.00,,,0.00,weatherlink.com 1.10,2013-04-04 05:25:00,
2013-04-04 01:40:00,29.4,15.0,30.38,SSE,158,1.0,2.0,56,0.00,,,0.00,weatherlink.com 1.10,2013-04-04 05:40:00,
2013-04-04 01:55:00,28.8,16.0,30.38,NW,305,2.0,5.0,58,0.00,,,0.00,weatherlink.com 1.10,2013-04-04 05:55:00,
2013-04-04 02:10:00,29.5,15.0,30.38,NW,308,1.0,4.0,55,0.00,,,0.00,weatherlink.com 1.10,2013-04-04 06:10:00,
2013-04-04 02:25:00,30.2,15.0,30.38,WNW,301,1.0,4.0,53,0.00,,,0.00,weatherlink.com 1.10,2013-04-04 06:25:00,
2013-04-04 02:40:00,30.1,15.0,30.38,West,281,0.0,4.0,54,0.00,,,0.00,weatherlink.com 1.10,2013-04-04 06:40:00,
2013-04-04 02:55:00,29.8,15.0,30.37,NW,326,0.0,5.0,54,0.00,,,0.00,weatherlink.com 1.10,2013-04-04 06:55:00,
2013-04-04 03:10:00,28.6,16.0,30.37,NW,313,2.0,2.0,59,0.00,,,0.00,weatherlink.com 1.10,2013-04-04 07:10:00,
2013-04-04 03:25:00,27.4,17.0,30.36,North,358,0.0,4.0,64,0.00,,,0.00,weatherlink.com 1.10,2013-04-04 07:25:00,
2013-04-04 03:40:00,28.7,15.0,30.37,West,270,0.0,3.0,58,0.00,,,0.00,weatherlink.com 1.10,2013-04-04 07:40:00,
2013-04-04 03:55:00,28.7,15.0,30.36,WNW,296,0.0,1.0,58,0.00,,,0.00,weatherlink.com 1.10,2013-04-04 07:55:00,
2013-04-04 04:10:00,26.9,18.0,30.37,NW,324,2.0,2.0,70,0.00,,,0.00,weatherlink.com 1.10,2013-04-04 08:10:00,
2013-04-04 04:25:00,26.6,16.0,30.38,SSE,164,1.0,3.0,65,0.00,,,0.00,weatherlink.com 1.10,2013-04-04 08:25:00,
2013-04-04 04:40:00,27.2,16.0,30.37,WNW,290,1.0,2.0,63,0.00,,,0.00,weatherlink.com 1.10,2013-04-04 08:40:00,
2013-04-04 04:55:00,26.8,16.0,30.38,WNW,293,0.0,5.0,64,0.00,,,0.00,weatherlink.com 1.10,2013-04-04 08:55:00,
2013-04-04 05:10:00,26.5,17.0,30.39,NNW,338,0.0,2.0,67,0.00,,,0.00,weatherlink.com 1.10,2013-04-04 09:10:00,
2013-04-04 05:26:00,25.8,16.0,30.39,SW,222,0.0,3.0,67,0.00,,,0.00,weatherlink.com 1.10,2013-04-04 09:26:00,
2013-04-04 05:41:00,25.7,17.0,30.40,West,281,0.0,1.0,70,0.00,,,0.00,weatherlink.com 1.10,2013-04-04 09:41:00,
2013-04-04 05:56:00,26.0,17.0,30.40,WNW,283,0.0,1.0,69,0.00,,,0.00,weatherlink.com 1.10,2013-04-04 09:56:00,
2013-04-04 06:11:00,25.0,16.0,30.41,North,6,0.0,0.0,69,0.00,,,0.00,weatherlink.com 1.10,2013-04-04 10:11:00,
2013-04-04 06:26:00,23.9,17.0,30.41,NW,322,0.0,2.0,76,0.00,,,0.00,weatherlink.com 1.10,2013-04-04 10:26:00,
2013-04-04 07:26:00,28.2,20.0,30.43,South,176,3.0,3.0,70,0.00,,,0.00,weatherlink.com 1.10,2013-04-04 11:26:00,
2013-04-04 07:56:00,30.1,21.0,30.43,SSE,150,1.0,2.0,69,0.00,,,0.00,weatherlink.com 1.10,2013-04-04 11:56:00,
2013-04-04 08:11:00,33.1,22.0,30.43,SSE,161,0.0,2.0,63,0.00,,,0.00,weatherlink.com 1.10,2013-04-04 12:11:00,
2013-04-04 08:26:00,33.1,19.0,30.42,NNW,347,3.0,5.0,56,0.00,,,0.00,weatherlink.com 1.10,2013-04-04 12:26:00,
2013-04-04 08:41:00,33.2,18.0,30.42,NNW,338,3.0,6.0,53,0.00,,,0.00,weatherlink.com 1.10,2013-04-04 12:41:00,
2013-04-04 08:56:00,33.7,18.0,30.42,NW,316,4.0,7.0,52,0.00,,,0.00,weatherlink.com 1.10,2013-04-04 12:56:00,
2013-04-04 09:11:00,34.4,19.0,30.41,NNE,26,1.0,7.0,53,0.00,,,0.00,weatherlink.com 1.10,2013-04-04 13:11:00,
2013-04-04 09:41:00,36.4,18.0,30.40,NNW,345,3.0,6.0,47,0.00,,,0.00,weatherlink.com 1.10,2013-04-04 13:41:00,
2013-04-04 09:56:00,36.9,19.0,30.39,NW,319,2.0,-999.0,48,-99.99,,,0.00,weatherlink.com 1.10,2013-04-04 13:56:00,
2013-04-04 10:56:00,39.6,19.0,30.37,East,82,5.0,7.0,44,0.00,,,0.00,weatherlink.com 1.10,2013-04-04 14:56:00,
2013-04-04 11:11:00,40.7,20.0,30.37,East,79,3.0,6.0,44,0.00,,,0.00,weatherlink.com 1.10,2013-04-04 15:11:00,
2013-04-04 11:42:00,41.7,21.0,30.36,SE,143,2.0,9.0,44,0.00,,,0.00,weatherlink.com 1.10,2013-04-04 15:42:00,
2013-04-04 11:57:00,43.4,22.0,30.35,East,101,3.0,7.0,43,0.00,,,0.00,weatherlink.com 1.10,2013-04-04 15:57:00,
2013-04-04 12:11:00,43.1,21.0,30.35,SW,222,4.0,7.0,42,0.00,,,0.00,weatherlink.com 1.10,2013-04-04 16:11:00,
2013-04-04 12:27:00,44.2,22.0,30.34,SSE,154,2.0,7.0,41,0.00,,,0.00,weatherlink.com 1.10,2013-04-04 16:27:00,
2013-04-04 12:42:00,43.8,22.0,30.34,SW,214,2.0,7.0,43,0.00,,,0.00,weatherlink.com 1.10,2013-04-04 16:42:00,
2013-04-04 12:57:00,45.1,22.0,30.32,ESE,113,1.0,8.0,40,0.00,,,0.00,weatherlink.com 1.10,2013-04-04 16:57:00,
2013-04-04 13:12:00,46.1,22.0,30.31,SSW,207,2.0,8.0,39,0.00,,,0.00,weatherlink.com 1.10,2013-04-04 17:12:00,
2013-04-04 13:27:00,46.6,23.0,30.30,South,169,4.0,7.0,39,0.00,,,0.00,weatherlink.com 1.10,2013-04-04 17:27:00,
2013-04-04 13:42:00,46.8,23.0,30.29,East,96,3.0,6.0,39,0.00,,,0.00,weatherlink.com 1.10,2013-04-04 17:42:00,
2013-04-04 13:57:00,47.8,22.0,30.28,SSE,159,1.0,6.0,37,0.00,,,0.00,weatherlink.com 1.10,2013-04-04 17:57:00,
2013-04-04 14:27:00,49.7,24.0,30.26,SW,224,12.0,12.0,36,0.00,,,0.00,weatherlink.com 1.10,2013-04-04 18:27:00,
2013-04-04 14:42:00,49.9,22.0,30.25,SSE,162,5.0,12.0,33,0.00,,,0.00,weatherlink.com 1.10,2013-04-04 18:42:00,
2013-04-04 14:57:00,50.5,21.0,30.24,SSW,210,3.0,10.0,31,0.00,,,0.00,weatherlink.com 1.10,2013-04-04 18:57:00,
2013-04-04 15:12:00,50.7,21.0,30.23,SE,130,6.0,10.0,31,0.00,,,0.00,weatherlink.com 1.10,2013-04-04 19:12:00,
2013-04-04 15:27:00,50.8,21.0,30.22,South,170,2.0,10.0,31,0.00,,,0.00,weatherlink.com 1.10,2013-04-04 19:27:00,
2013-04-04 15:42:00,50.6,21.0,30.22,West,270,1.0,9.0,31,0.00,,,0.00,weatherlink.com 1.10,2013-04-04 19:42:00,
2013-04-04 16:12:00,51.6,19.0,30.20,South,181,6.0,12.0,28,0.00,,,0.00,weatherlink.com 1.10,2013-04-04 20:12:00,
2013-04-04 16:27:00,51.4,21.0,30.20,South,181,4.0,10.0,30,0.00,,,0.00,weatherlink.com 1.10,2013-04-04 20:27:00,
2013-04-04 16:42:00,50.7,20.0,30.20,SSW,203,4.0,12.0,30,0.00,,,0.00,weatherlink.com 1.10,2013-04-04 20:42:00,
2013-04-04 16:57:00,50.1,23.0,30.19,SSE,166,6.0,12.0,35,0.00,,,0.00,weatherlink.com 1.10,2013-04-04 20:57:00,
2013-04-04 17:12:00,49.2,22.0,30.19,SSE,156,7.0,11.0,34,0.00,,,0.00,weatherlink.com 1.10,2013-04-04 21:12:00,
2013-04-04 17:27:00,48.4,20.0,30.19,South,174,7.0,12.0,33,0.00,,,0.00,weatherlink.com 1.10,2013-04-04 21:27:00,
2013-04-04 17:42:00,47.7,19.0,30.19,SSE,152,4.0,16.0,32,0.00,,,0.00,weatherlink.com 1.10,2013-04-04 21:42:00,
2013-04-04 17:57:00,47.1,18.0,30.20,SSE,150,3.0,15.0,32,0.00,,,0.00,weatherlink.com 1.10,2013-04-04 21:57:00,
2013-04-04 18:12:00,46.3,15.0,30.19,SE,141,5.0,13.0,29,0.00,,,0.00,weatherlink.com 1.10,2013-04-04 22:12:00,
2013-04-04 18:27:00,45.7,17.0,30.19,SE,144,7.0,9.0,32,0.00,,,0.00,weatherlink.com 1.10,2013-04-04 22:27:00,
2013-04-04 18:43:00,44.7,18.0,30.18,SE,134,6.0,10.0,34,0.00,,,0.00,weatherlink.com 1.10,2013-04-04 22:43:00,
2013-04-04 18:58:00,44.0,18.0,30.17,SSE,160,4.0,9.0,35,0.00,,,0.00,weatherlink.com 1.10,2013-04-04 22:58:00,
2013-04-04 19:13:00,43.5,17.0,30.16,SSW,210,4.0,6.0,35,0.00,,,0.00,weatherlink.com 1.10,2013-04-04 23:13:00,
2013-04-04 19:28:00,43.3,17.0,30.16,SSW,211,3.0,7.0,35,0.00,,,0.00,weatherlink.com 1.10,2013-04-04 23:28:00,
2013-04-04 19:43:00,42.9,17.0,30.16,South,173,3.0,7.0,36,0.00,,,0.00,weatherlink.com 1.10,2013-04-04 23:43:00,
2013-04-04 19:58:00,42.3,21.0,30.15,South,172,2.0,4.0,42,0.00,,,0.00,weatherlink.com 1.10,2013-04-04 23:58:00,
2013-04-04 20:13:00,42.1,21.0,30.14,SE,145,2.0,5.0,43,0.00,,,0.00,weatherlink.com 1.10,2013-04-05 00:13:00,
2013-04-04 20:28:00,41.9,22.0,30.15,SSE,148,2.0,8.0,46,0.00,,,0.00,weatherlink.com 1.10,2013-04-05 00:28:00,
2013-04-04 20:43:00,41.8,22.0,30.15,SE,141,6.0,10.0,45,0.00,,,0.00,weatherlink.com 1.10,2013-04-05 00:43:00,
2013-04-04 20:58:00,41.6,23.0,30.14,South,173,5.0,9.0,47,0.00,,,0.00,weatherlink.com 1.10,2013-04-05 00:58:00,
2013-04-04 21:13:00,41.5,23.0,30.14,SSE,163,4.0,7.0,48,0.00,,,0.00,weatherlink.com 1.10,2013-04-05 01:13:00,
2013-04-04 21:28:00,41.3,23.0,30.14,SSW,212,3.0,3.0,49,0.00,,,0.00,weatherlink.com 1.10,2013-04-05 01:28:00,
2013-04-04 21:43:00,41.3,23.0,30.14,SSE,167,3.0,6.0,49,0.00,,,0.00,weatherlink.com 1.10,2013-04-05 01:43:00,
2013-04-04 21:58:00,41.2,24.0,30.14,SSE,162,3.0,5.0,50,0.00,,,0.00,weatherlink.com 1.10,2013-04-05 01:58:00,
2013-04-04 22:13:00,41.1,24.0,30.13,SSE,152,1.0,5.0,52,0.00,,,0.00,weatherlink.com 1.10,2013-04-05 02:13:00,
2013-04-04 22:28:00,40.8,25.0,30.12,SSE,161,2.0,4.0,53,0.00,,,0.00,weatherlink.com 1.10,2013-04-05 02:28:00,
2013-04-04 22:43:00,40.5,25.0,30.11,SSE,160,2.0,4.0,55,0.00,,,0.00,weatherlink.com 1.10,2013-04-05 02:43:00,
2013-04-04 22:58:00,39.9,26.0,30.11,SSE,160,1.0,3.0,57,0.00,,,0.00,weatherlink.com 1.10,2013-04-05 02:58:00,
2013-04-04 23:13:00,39.7,26.0,30.10,SSE,155,1.0,2.0,59,0.00,,,0.00,weatherlink.com 1.10,2013-04-05 03:13:00,
2013-04-04 23:28:00,39.6,27.0,30.09,South,176,0.0,2.0,60,0.00,,,0.00,weatherlink.com 1.10,2013-04-05 03:28:00,
2013-04-04 23:43:00,39.5,26.0,30.09,SE,141,0.0,2.0,60,0.00,,,0.00,weatherlink.com 1.10,2013-04-05 03:43:00,
2013-04-04 23:58:00,39.5,26.0,30.08,SE,124,0.0,1.0,60,0.00,,,0.00,weatherlink.com 1.10,2013-04-05 03:58:00,